Time;durP1;ratioP1;P1;durP2;ratioP2;P2;SDS_P1;SDS_P2;PMS_P1;PMS_P2;Temp;Humidity;BMP_temperature;BMP_pressure;BME280_temperature;BME280_humidity;BME280_pressure;Samples;Min_cycle;Max_cycle;Signal;HPM_P1;HPM_P2
2022/01/15 00:01:03;;;;;;;65.45;34.97;;;;;;;2.62;81.98;101113.03;5006382;28;20056;-74
2022/01/15 00:03:30;;;;;;;65.47;36.30;;;;;;;2.50;82.31;101112.09;5007035;28;20076;-73
2022/01/15 00:05:56;;;;;;;62.25;33.25;;;;;;;2.45;82.23;101112.94;5006489;28;20045;-73
2022/01/15 00:08:21;;;;;;;52.30;30.17;;;;;;;2.48;82.55;101107.72;5007251;28;20042;-74
2022/01/15 00:10:47;;;;;;;53.83;31.10;;;;;;;2.52;81.91;101109.50;5009738;28;20041;-73
2022/01/15 00:13:23;;;;;;;48.38;27.08;;;;;;;2.49;81.27;101119.91;5010846;28;20058;-73
2022/01/15 00:16:00;;;;;;;43.90;25.35;;;;;;;2.39;81.33;101111.19;5008116;28;20046;-74
2022/01/15 00:18:39;;;;;;;52.67;28.20;;;;;;;2.31;81.65;101111.13;5009895;28;20510;-73
2022/01/15 00:21:05;;;;;;;44.85;27.58;;;;;;;2.30;81.69;101109.38;5010661;28;20030;-73
2022/01/15 00:23:30;;;;;;;40.70;26.52;;;;;;;2.29;81.67;101101.53;5009377;28;20115;-73
2022/01/15 00:25:55;;;;;;;53.97;29.08;;;;;;;2.32;81.27;101101.59;5011295;28;20040;-73
2022/01/15 00:28:21;;;;;;;46.45;27.88;;;;;;;2.28;81.83;101105.88;5011646;28;20030;-73
2022/01/15 00:30:46;;;;;;;60.47;27.70;;;;;;;2.27;82.22;101108.50;5010504;28;20039;-73
2022/01/15 00:33:11;;;;;;;49.58;27.52;;;;;;;2.25;82.26;101108.47;5010088;28;20037;-73
2022/01/15 00:35:37;;;;;;;53.85;29.00;;;;;;;2.27;82.36;101113.72;5012566;28;20033;-73
2022/01/15 00:38:03;;;;;;;46.42;28.35;;;;;;;2.25;82.66;101100.69;5010996;28;20033;-73
2022/01/15 00:40:28;;;;;;;52.17;29.48;;;;;;;2.25;82.48;101099.81;5008599;28;20037;-74
2022/01/15 00:42:54;;;;;;;60.28;28.73;;;;;;;2.25;82.69;101098.06;5010216;28;20052;-73
2022/01/15 00:45:22;;;;;;;54.05;29.15;;;;;;;2.25;83.13;101097.22;5011190;28;20034;-73
2022/01/15 00:47:48;;;;;;;59.58;31.30;;;;;;;2.30;83.08;101096.38;5008372;28;20041;-72
2022/01/15 00:50:14;;;;;;;72.25;33.42;;;;;;;2.29;82.56;101089.44;5010146;28;20407;-73
2022/01/15 00:52:41;;;;;;;75.97;36.13;;;;;;;2.29;82.56;101085.94;5005826;28;20049;-71
2022/01/15 00:55:09;;;;;;;70.22;35.72;;;;;;;2.26;82.79;101081.59;5009546;28;20087;-71
2022/01/15 00:57:34;;;;;;;68.35;33.78;;;;;;;2.25;83.15;101072.06;5011698;28;20041;-71
2022/01/15 01:00:00;;;;;;;57.90;30.52;;;;;;;2.22;83.09;101084.19;5011314;28;20061;-72
2022/01/15 01:02:25;;;;;;;53.15;29.90;;;;;;;2.26;82.96;101076.38;5007612;28;20451;-72
2022/01/15 01:04:51;;;;;;;65.45;33.60;;;;;;;2.29;82.91;101073.81;5010632;28;20033;-73
2022/01/15 01:07:16;;;;;;;64.97;34.33;;;;;;;2.27;83.01;101075.53;5009596;28;20391;-72
2022/01/15 01:20:35;;;;;;;81.60;39.85;;;;;;;2.46;82.35;101053.09;4992594;28;20081;-71
2022/01/15 01:23:01;;;;;;;77.13;37.72;;;;;;;2.40;82.81;101047.84;5009625;28;20038;-72
2022/01/15 01:25:33;;;;;;;81.95;36.13;;;;;;;2.35;83.35;101042.59;4993487;28;20044;-72
2022/01/15 01:28:06;;;;;;;72.90;34.53;;;;;;;2.30;83.30;101039.13;4989191;28;20035;-72
2022/01/15 01:30:39;;;;;;;71.18;35.10;;;;;;;2.26;83.77;101034.75;5007259;28;20033;-73
2022/01/15 01:35:41;;;;;;;60.83;32.08;;;;;;;2.25;83.73;101037.38;5010112;28;20042;-73
2022/01/15 01:38:21;;;;;;;69.00;36.10;;;;;;;2.17;83.48;101032.13;5008212;28;20494;-73
2022/01/15 01:40:50;;;;;;;60.50;32.05;;;;;;;2.12;83.86;101031.25;5007571;28;20038;-73
2022/01/15 01:45:46;;;;;;;54.40;29.90;;;;;;;2.08;83.82;101024.28;5009564;28;20030;-72
2022/01/15 01:48:11;;;;;;;56.22;30.20;;;;;;;2.09;83.49;101031.19;5009617;28;20048;-71
2022/01/15 01:50:36;;;;;;;66.85;34.00;;;;;;;2.10;83.34;101020.81;5007244;28;20053;-73
2022/01/15 01:53:02;;;;;;;71.10;30.67;;;;;;;2.11;83.41;101021.69;5008028;28;20384;-72
2022/01/15 01:55:28;;;;;;;59.35;33.65;;;;;;;2.08;83.19;101032.06;5009311;28;20548;-72
2022/01/15 01:57:56;;;;;;;71.60;33.53;;;;;;;1.97;83.67;101024.22;5009055;28;20472;-72
2022/01/15 02:00:24;;;;;;;55.40;30.55;;;;;;;1.91;83.81;101027.63;5002059;28;20406;-72
2022/01/15 02:02:51;;;;;;;51.10;28.35;;;;;;;1.80;83.54;101029.31;4976574;28;20050;-73
2022/01/15 02:05:18;;;;;;;63.28;28.33;;;;;;;1.69;84.00;101033.56;5009269;28;20037;-74
2022/01/15 02:07:44;;;;;;;61.22;27.48;;;;;;;1.64;83.91;101028.31;5009230;28;20084;-72
2022/01/15 02:10:13;;;;;;;44.90;24.33;;;;;;;1.58;84.25;101019.63;5006577;28;20495;-71
2022/01/15 02:12:39;;;;;;;50.20;23.00;;;;;;;1.64;84.30;101020.53;5008338;28;20061;-74
2022/01/15 02:15:09;;;;;;;52.40;26.13;;;;;;;1.73;83.95;101019.72;5009196;28;20057;-72
2022/01/15 02:17:36;;;;;;;55.45;26.98;;;;;;;1.74;84.30;101018.00;5009521;28;20077;-72
2022/01/15 02:20:34;;;;;;;56.50;26.45;;;;;;;1.71;83.61;101014.50;5009830;28;20045;-73
2022/01/15 02:25:58;;;;;;;75.88;32.53;;;;;;;1.70;84.18;101007.59;5008772;28;20044;-72
2022/01/15 02:28:28;;;;;;;50.95;24.33;;;;;;;1.71;84.54;101013.66;5009438;28;20137;-72
2022/01/15 02:30:55;;;;;;;56.38;25.50;;;;;;;1.72;84.54;101012.78;5007290;28;20030;-72
2022/01/15 02:33:21;;;;;;;67.47;27.45;;;;;;;1.72;84.79;101015.38;5008844;28;20507;-72
2022/01/15 02:35:47;;;;;;;68.28;28.67;;;;;;;1.64;85.44;101010.13;5009248;28;20092;-72
2022/01/15 02:38:12;;;;;;;78.30;32.33;;;;;;;1.61;85.14;100999.72;5009246;28;20034;-73
2022/01/15 02:40:38;;;;;;;63.20;28.25;;;;;;;1.62;85.59;101003.19;5008589;28;20033;-73
2022/01/15 02:43:11;;;;;;;63.67;29.77;;;;;;;1.65;85.20;100991.09;5009047;28;20034;-74
2022/01/15 02:45:41;;;;;;;64.13;32.45;;;;;;;1.66;85.14;100998.00;5008739;28;20080;-73
2022/01/15 02:48:14;;;;;;;58.47;26.60;;;;;;;1.67;85.11;100991.97;5008569;28;20038;-73
2022/01/15 02:50:41;;;;;;;68.40;28.25;;;;;;;1.65;84.85;100995.38;5007510;28;20784;-73
2022/01/15 02:53:08;;;;;;;57.45;27.83;;;;;;;1.66;85.08;100987.63;5008333;28;20092;-73
2022/01/15 02:55:34;;;;;;;81.72;27.33;;;;;;;1.63;84.40;100992.81;5007409;28;20038;-73
2022/01/15 02:57:59;;;;;;;59.63;27.95;;;;;;;1.60;84.50;100981.50;5009144;28;20029;-73
2022/01/15 03:00:26;;;;;;;67.55;30.52;;;;;;;1.58;84.94;100976.31;5008275;28;20120;-73
2022/01/15 03:02:51;;;;;;;66.45;30.50;;;;;;;1.58;85.43;100971.13;5008357;28;20030;-73
2022/01/15 03:05:17;;;;;;;56.35;27.83;;;;;;;1.67;85.28;100970.28;5008460;28;20096;-73
2022/01/15 03:07:42;;;;;;;53.70;24.00;;;;;;;1.70;85.16;100970.31;5008403;28;20041;-73
2022/01/15 03:10:09;;;;;;;47.17;23.95;;;;;;;1.68;84.41;100969.44;5008513;28;20041;-73
2022/01/15 03:12:35;;;;;;;47.83;22.42;;;;;;;1.65;84.13;100974.59;5007275;28;20500;-74
2022/01/15 03:15:03;;;;;;;50.78;23.63;;;;;;;1.58;84.56;100971.13;5008845;28;20034;-74
2022/01/15 03:17:28;;;;;;;57.40;28.88;;;;;;;1.47;84.35;100968.41;5009580;28;20495;-74
2022/01/15 03:19:54;;;;;;;57.20;26.45;;;;;;;1.40;84.32;100963.16;5009857;28;20084;-74
2022/01/15 03:22:19;;;;;;;44.70;22.15;;;;;;;1.36;83.93;100953.63;5007678;28;20054;-74
2022/01/15 03:24:45;;;;;;;46.17;23.42;;;;;;;1.36;84.72;100946.72;5008314;28;20109;-74
2022/01/15 03:27:11;;;;;;;38.42;20.35;;;;;;;1.37;84.08;100943.25;5008365;28;20034;-75
2022/01/15 03:29:36;;;;;;;38.55;20.58;;;;;;;1.34;84.36;100940.63;5006196;28;20090;-74
2022/01/15 03:32:02;;;;;;;39.63;20.60;;;;;;;1.36;84.05;100949.31;5007976;28;20125;-74
2022/01/15 03:34:27;;;;;;;42.65;22.05;;;;;;;1.36;84.50;100941.50;5008226;28;20065;-74
2022/01/15 03:36:53;;;;;;;44.72;21.52;;;;;;;1.39;84.32;100938.06;5008353;28;20110;-74
2022/01/15 03:39:18;;;;;;;47.53;22.00;;;;;;;1.39;83.13;100940.66;5008060;28;20037;-74
2022/01/15 03:41:44;;;;;;;41.45;20.95;;;;;;;1.29;84.05;100934.53;5007314;28;20026;-74
2022/01/15 03:44:10;;;;;;;36.80;20.92;;;;;;;1.24;83.72;100928.44;5008107;28;20030;-74
2022/01/15 03:46:35;;;;;;;39.00;20.33;;;;;;;1.23;83.92;100931.88;5006947;28;20042;-75
2022/01/15 03:49:00;;;;;;;41.80;21.88;;;;;;;1.23;84.38;100930.16;5007379;28;20034;-74
2022/01/15 03:51:26;;;;;;;54.10;22.58;;;;;;;1.18;84.24;100926.66;5007566;28;20140;-74
2022/01/15 03:53:51;;;;;;;38.42;21.58;;;;;;;1.18;84.20;100925.78;5007433;28;20045;-74
2022/01/15 03:56:16;;;;;;;47.75;19.92;;;;;;;1.21;84.50;100929.28;5008076;28;20454;-75
2022/01/15 03:58:42;;;;;;;42.53;20.02;;;;;;;1.17;84.45;100916.25;5007725;28;20076;-75
2022/01/15 04:01:07;;;;;;;45.33;20.90;;;;;;;1.17;83.87;100916.25;5007430;28;20060;-74
2022/01/15 04:03:32;;;;;;;37.33;19.40;;;;;;;1.17;83.97;100908.47;5008314;28;20034;-74
2022/01/15 04:05:57;;;;;;;33.75;18.92;;;;;;;1.19;83.98;100906.75;5006370;28;20038;-74
2022/01/15 04:08:23;;;;;;;30.08;18.20;;;;;;;1.23;84.51;100901.59;5008088;28;20041;-74
2022/01/15 04:10:48;;;;;;;31.48;17.75;;;;;;;1.30;83.54;100894.69;5010508;28;20035;-74
2022/01/15 04:13:15;;;;;;;37.55;20.63;;;;;;;1.35;83.47;100900.78;5010915;28;20060;-74
2022/01/15 04:15:42;;;;;;;41.47;23.52;;;;;;;1.35;82.79;100897.31;5011171;28;20069;-74
2022/01/15 04:18:07;;;;;;;43.00;21.75;;;;;;;1.31;83.82;100887.78;5010932;28;20065;-74
2022/01/15 04:20:33;;;;;;;42.25;22.00;;;;;;;1.26;82.99;100901.63;5011068;28;20030;-74
2022/01/15 04:22:58;;;;;;;37.97;19.50;;;;;;;1.22;83.20;100893.78;5011182;28;20047;-73
2022/01/15 04:25:23;;;;;;;34.42;16.85;;;;;;;1.29;83.85;100895.56;5011216;28;20042;-73
2022/01/15 04:27:49;;;;;;;33.28;18.15;;;;;;;1.29;83.10;100890.38;5011146;28;20030;-74
2022/01/15 04:30:17;;;;;;;34.03;17.73;;;;;;;1.23;83.30;100888.59;5011333;28;20034;-74
2022/01/15 04:32:42;;;;;;;39.70;20.88;;;;;;;1.21;82.94;100882.53;5010068;28;20038;-74
2022/01/15 04:35:09;;;;;;;32.85;17.27;;;;;;;1.19;82.99;100879.03;5011041;28;20036;-74
2022/01/15 04:37:45;;;;;;;31.48;17.27;;;;;;;1.24;83.07;100879.09;5011388;28;20434;-74
2022/01/15 04:40:11;;;;;;;;;;;;;;;1.23;82.85;100879.91;5011232;28;20058;-74
2022/01/15 04:42:37;;;;;;;35.78;18.88;;;;;;;1.11;83.64;100879.84;5010153;28;19920;-74
2022/01/15 04:45:06;;;;;;;32.13;16.00;;;;;;;1.13;83.71;100875.53;5010959;28;20038;-73
2022/01/15 04:47:31;;;;;;;49.38;21.55;;;;;;;1.11;83.03;100885.03;4993523;28;20045;-74
2022/01/15 04:49:58;;;;;;;43.25;20.60;;;;;;;1.01;83.37;100879.78;5011025;28;20034;-73
2022/01/15 04:52:23;;;;;;;36.83;20.83;;;;;;;0.99;84.39;100880.66;5009551;28;20038;-74
2022/01/15 04:54:49;;;;;;;34.70;19.60;;;;;;;1.09;84.83;100873.78;5010748;28;20060;-74
2022/01/15 04:57:14;;;;;;;35.97;18.08;;;;;;;1.17;83.77;100869.50;5010041;28;20034;-74
2022/01/15 04:59:39;;;;;;;39.67;20.55;;;;;;;1.18;83.05;100861.75;5010708;28;20030;-74
2022/01/15 05:02:05;;;;;;;34.58;20.40;;;;;;;1.19;83.73;100867.81;5010281;28;20046;-74
2022/01/15 05:04:30;;;;;;;33.70;19.60;;;;;;;1.22;83.21;100865.22;5010380;28;20041;-74
2022/01/15 05:06:55;;;;;;;42.72;22.95;;;;;;;1.23;83.45;100859.16;5010200;28;20121;-74
2022/01/15 05:09:21;;;;;;;35.38;19.98;;;;;;;1.21;83.20;100853.97;4991698;28;20042;-74
2022/01/15 05:11:48;;;;;;;37.97;19.95;;;;;;;1.21;83.28;100851.38;5006005;28;20038;-75
2022/01/15 05:14:16;;;;;;;34.53;18.52;;;;;;;1.23;83.45;100849.66;5010592;28;20037;-75
2022/01/15 05:16:42;;;;;;;37.40;18.60;;;;;;;1.23;83.35;100849.66;5010500;28;20059;-75
2022/01/15 05:19:07;;;;;;;32.33;18.88;;;;;;;1.20;83.30;100838.34;5010742;28;20034;-73
2022/01/15 05:21:33;;;;;;;36.15;18.67;;;;;;;1.23;83.87;100848.75;5011358;28;20091;-73
2022/01/15 05:23:58;;;;;;;32.90;17.83;;;;;;;1.18;83.52;100845.25;5014597;28;20030;-73
2022/01/15 05:26:24;;;;;;;37.47;19.17;;;;;;;1.17;83.19;100847.00;5016533;28;20042;-73
2022/01/15 05:28:49;;;;;;;34.80;20.35;;;;;;;1.11;83.37;100836.59;5014874;28;20139;-74
2022/01/15 05:31:14;;;;;;;34.15;18.88;;;;;;;1.02;83.82;100837.38;5009873;28;20551;-74
2022/01/15 05:33:40;;;;;;;35.55;18.63;;;;;;;0.97;83.52;100833.03;5007949;28;20056;-74
2022/01/15 05:36:05;;;;;;;31.00;17.40;;;;;;;0.98;83.55;100829.56;5010351;28;20302;-74
2022/01/15 05:38:31;;;;;;;36.67;20.35;;;;;;;0.99;83.40;100826.13;5009638;28;20613;-74
2022/01/15 05:40:56;;;;;;;33.05;15.88;;;;;;;0.97;83.81;100825.25;5008664;28;20076;-73
2022/01/15 05:43:22;;;;;;;30.25;17.13;;;;;;;1.00;83.73;100827.84;5009414;28;20130;-74
2022/01/15 05:45:47;;;;;;;35.90;16.40;;;;;;;1.00;83.01;100820.91;5009048;28;20124;-75
2022/01/15 05:48:13;;;;;;;29.70;17.38;;;;;;;0.95;83.25;100812.22;5009552;28;20041;-75
2022/01/15 05:50:38;;;;;;;27.38;15.63;;;;;;;0.98;83.26;100813.97;5009036;28;20491;-74
2022/01/15 05:53:03;;;;;;;31.27;16.42;;;;;;;0.94;82.97;100820.91;5009669;28;20050;-75
2022/01/15 05:55:29;;;;;;;27.35;16.90;;;;;;;0.93;82.83;100815.69;5009531;28;20058;-74
2022/01/15 05:57:54;;;;;;;25.15;14.63;;;;;;;0.92;83.92;100806.16;5009428;28;20066;-74
2022/01/15 06:00:19;;;;;;;28.63;16.25;;;;;;;0.92;82.39;100807.03;5009467;28;20199;-74
2022/01/15 06:02:45;;;;;;;28.85;15.57;;;;;;;0.91;83.21;100809.59;5007851;28;20038;-74
2022/01/15 06:05:10;;;;;;;30.27;15.63;;;;;;;0.87;82.42;100803.53;5008956;28;20034;-73
2022/01/15 06:07:35;;;;;;;24.35;14.85;;;;;;;0.86;82.74;100806.97;5009390;28;20060;-73
2022/01/15 06:10:01;;;;;;;30.00;18.30;;;;;;;0.85;82.77;100806.13;5008942;28;20030;-73
2022/01/15 06:12:31;;;;;;;29.25;16.58;;;;;;;0.81;83.12;100800.88;5006444;28;20176;-73
2022/01/15 06:14:58;;;;;;;31.00;15.93;;;;;;;0.80;83.07;100799.16;5005290;28;20095;-74
2022/01/15 06:17:24;;;;;;;35.50;19.20;;;;;;;0.76;83.35;100800.84;5007821;28;20042;-74
2022/01/15 06:19:49;;;;;;;29.65;17.35;;;;;;;0.71;83.50;100801.69;5009307;28;20519;-74
2022/01/15 06:22:14;;;;;;;32.35;16.08;;;;;;;0.73;83.82;100800.84;5008394;28;20415;-74
2022/01/15 06:24:40;;;;;;;25.45;15.50;;;;;;;0.69;83.40;100787.81;5008971;28;20410;-75
2022/01/15 06:27:05;;;;;;;33.83;15.40;;;;;;;0.69;83.43;100791.31;5009442;28;20034;-75
2022/01/15 06:29:30;;;;;;;38.80;19.33;;;;;;;0.68;83.67;100794.75;5007364;28;20037;-74
2022/01/15 06:31:56;;;;;;;38.58;18.45;;;;;;;0.69;83.23;100786.13;5007533;28;20089;-74
2022/01/15 06:34:21;;;;;;;30.27;16.65;;;;;;;0.62;83.27;100794.72;5008771;28;20641;-74
2022/01/15 06:36:47;;;;;;;28.38;16.17;;;;;;;0.54;83.62;100786.88;5009093;28;20048;-73
2022/01/15 06:39:12;;;;;;;22.92;14.00;;;;;;;0.54;84.08;100791.16;5008898;28;20500;-74
2022/01/15 06:41:38;;;;;;;38.33;20.05;;;;;;;0.48;83.56;100791.13;5008274;28;20061;-74
2022/01/15 06:44:03;;;;;;;29.30;15.75;;;;;;;0.46;84.48;100782.47;5007099;28;20038;-74
2022/01/15 06:46:29;;;;;;;29.45;16.20;;;;;;;0.48;84.06;100779.03;5008588;28;20045;-74
2022/01/15 06:48:54;;;;;;;31.92;17.15;;;;;;;0.47;84.40;100782.50;5007275;28;20034;-74
2022/01/15 06:51:20;;;;;;;32.45;18.48;;;;;;;0.46;84.37;100778.16;5007929;28;20507;-74
2022/01/15 06:53:45;;;;;;;22.48;14.25;;;;;;;0.49;84.55;100778.16;5008702;28;20046;-74
2022/01/15 06:56:10;;;;;;;28.25;17.15;;;;;;;0.42;84.41;100785.03;5006747;28;20041;-74
2022/01/15 06:58:36;;;;;;;26.27;15.65;;;;;;;0.47;84.80;100782.50;5009035;28;20044;-74
2022/01/15 07:01:01;;;;;;;27.92;16.17;;;;;;;0.47;84.33;100781.59;5007342;28;20133;-74
2022/01/15 07:03:27;;;;;;;30.02;15.43;;;;;;;0.47;84.60;100787.69;5007199;28;20128;-74
2022/01/15 07:05:52;;;;;;;24.85;13.85;;;;;;;0.48;84.20;100791.13;5008989;28;20412;-75
2022/01/15 07:08:17;;;;;;;32.70;17.17;;;;;;;0.48;83.92;100792.00;5008814;28;20037;-75
2022/01/15 07:10:43;;;;;;;28.52;15.10;;;;;;;0.50;83.81;100790.28;5008377;28;20062;-74
2022/01/15 07:13:10;;;;;;;30.13;16.15;;;;;;;0.48;84.35;100794.59;5008077;28;20125;-74
2022/01/15 07:15:36;;;;;;;28.05;15.57;;;;;;;0.51;84.56;100794.63;5007464;28;20049;-75
2022/01/15 07:18:01;;;;;;;33.30;18.58;;;;;;;0.51;84.21;100792.00;5008290;28;20466;-75
2022/01/15 07:20:27;;;;;;;29.75;14.82;;;;;;;0.58;83.92;100795.53;5008050;28;20076;-75
2022/01/15 07:22:54;;;;;;;25.92;15.43;;;;;;;0.56;83.75;100797.25;5007787;28;20123;-75
2022/01/15 07:25:19;;;;;;;40.22;19.15;;;;;;;0.53;83.47;100798.09;5009542;28;20046;-74
2022/01/15 07:27:45;;;;;;;27.65;17.00;;;;;;;0.48;83.78;100793.72;5011230;28;20034;-74
2022/01/15 07:30:13;;;;;;;29.80;16.02;;;;;;;0.49;83.57;100790.28;5012097;28;20038;-74
2022/01/15 07:32:40;;;;;;;33.75;18.33;;;;;;;0.45;83.51;100789.38;5010174;28;20513;-74
2022/01/15 07:35:06;;;;;;;29.10;15.88;;;;;;;0.45;83.05;100789.38;5010144;28;20495;-75
2022/01/15 07:37:32;;;;;;;30.83;17.25;;;;;;;0.45;83.03;100791.13;5009551;28;20038;-75
2022/01/15 07:39:59;;;;;;;33.42;18.10;;;;;;;0.39;82.65;100789.31;5009328;28;20046;-75
2022/01/15 07:42:24;;;;;;;30.65;17.73;;;;;;;0.41;83.03;100792.81;5013960;28;20080;-74
2022/01/15 07:44:50;;;;;;;34.97;18.52;;;;;;;0.42;83.57;100792.81;5014056;28;20038;-75
2022/01/15 07:47:15;;;;;;;34.38;19.20;;;;;;;0.39;83.44;100799.69;5020803;28;20498;-74
2022/01/15 07:49:41;;;;;;;29.95;15.90;;;;;;;0.39;83.50;100798.00;5017905;28;20384;-74
2022/01/15 07:52:06;;;;;;;29.05;14.32;;;;;;;0.38;83.13;100798.84;5012240;28;20066;-75
2022/01/15 07:54:32;;;;;;;28.63;16.83;;;;;;;0.41;82.88;100798.84;5011168;28;20058;-74
2022/01/15 07:56:58;;;;;;;32.33;16.17;;;;;;;0.42;83.26;100797.16;5011174;28;20034;-73
2022/01/15 07:59:28;;;;;;;33.95;18.25;;;;;;;0.46;82.84;100790.25;5012373;28;20050;-73
2022/01/15 08:01:54;;;;;;;34.53;18.92;;;;;;;0.49;83.07;100782.47;5013240;28;20128;-74
2022/01/15 08:04:19;;;;;;;36.55;20.10;;;;;;;0.49;82.42;100780.75;5013742;28;20056;-74
2022/01/15 08:06:44;;;;;;;28.00;14.88;;;;;;;0.51;82.46;100771.25;5013866;28;20044;-73
2022/01/15 08:09:09;;;;;;;26.95;14.95;;;;;;;0.54;82.24;100779.09;5014177;28;20044;-72
2022/01/15 08:11:35;;;;;;;26.52;14.88;;;;;;;0.56;82.79;100774.75;5006833;28;20038;-73
2022/01/15 08:14:01;;;;;;;25.58;15.00;;;;;;;0.60;81.87;100771.34;5010775;28;20708;-73
2022/01/15 08:16:27;;;;;;;26.35;14.38;;;;;;;0.64;82.38;100778.31;5004753;28;20089;-72
2022/01/15 08:18:52;;;;;;;30.05;18.02;;;;;;;0.67;83.08;100769.66;5003583;28;20037;-73
2022/01/15 08:21:18;;;;;;;38.40;19.13;;;;;;;0.69;82.05;100774.84;4997377;28;20100;-74
2022/01/15 08:23:43;;;;;;;23.17;15.75;;;;;;;0.69;82.29;100775.75;4992018;28;20035;-73
2022/01/15 08:26:09;;;;;;;29.23;17.50;;;;;;;0.70;82.03;100780.06;4991227;28;20615;-74
2022/01/15 08:28:37;;;;;;;31.15;17.00;;;;;;;0.76;82.62;100777.50;4989651;28;20034;-71
2022/01/15 08:31:06;;;;;;;35.30;18.65;;;;;;;0.79;81.87;100781.88;4974895;28;20109;-72
2022/01/15 08:33:31;;;;;;;26.25;15.93;;;;;;;0.84;82.27;100770.66;4989569;28;20038;-72
2022/01/15 08:35:57;;;;;;;42.42;22.27;;;;;;;0.80;81.79;100775.81;4990085;28;20041;-73
2022/01/15 08:38:23;;;;;;;27.20;16.40;;;;;;;0.87;82.71;100774.13;4991604;28;20113;-73
2022/01/15 08:40:49;;;;;;;36.13;19.65;;;;;;;0.87;82.18;100768.94;4988942;28;20571;-72
2022/01/15 08:43:14;;;;;;;32.70;18.02;;;;;;;0.92;82.98;100775.03;4986930;28;20038;-72
2022/01/15 08:45:40;;;;;;;35.53;18.98;;;;;;;1.06;82.32;100779.44;4991903;28;20034;-73
2022/01/15 08:48:05;;;;;;;35.20;19.50;;;;;;;1.07;81.86;100775.97;4990855;28;20093;-73
2022/01/15 08:50:31;;;;;;;33.22;18.83;;;;;;;1.14;82.30;100770.81;4989813;28;20117;-73
2022/01/15 08:52:57;;;;;;;52.42;23.40;;;;;;;1.17;81.28;100774.28;4990453;28;20034;-74
2022/01/15 08:55:28;;;;;;;37.90;22.10;;;;;;;1.17;81.51;100773.41;4992087;28;20400;-74
2022/01/15 08:57:54;;;;;;;46.53;23.42;;;;;;;1.19;81.65;100766.50;4990337;28;20049;-74
2022/01/15 09:00:19;;;;;;;43.42;21.98;;;;;;;1.27;81.30;100765.66;4990984;28;20496;-73
2022/01/15 09:02:45;;;;;;;30.08;17.08;;;;;;;1.42;81.04;100764.84;5000126;28;20038;-74
2022/01/15 09:05:11;;;;;;;36.88;20.33;;;;;;;1.56;80.41;100766.66;5010442;28;20113;-73
2022/01/15 09:07:36;;;;;;;29.17;18.38;;;;;;;1.61;80.03;100762.34;5010907;28;20401;-73
2022/01/15 09:10:03;;;;;;;30.55;17.70;;;;;;;1.64;79.98;100758.00;5010359;28;20030;-74
2022/01/15 09:12:28;;;;;;;27.08;16.70;;;;;;;1.66;79.23;100760.63;5009614;28;20065;-69
2022/01/15 09:14:58;;;;;;;29.60;17.45;;;;;;;1.61;79.13;100762.34;5009839;28;20035;-70
2022/01/15 09:17:25;;;;;;;23.50;15.20;;;;;;;1.70;78.82;100758.03;5010626;28;20680;-69
2022/01/15 09:19:50;;;;;;;23.10;12.90;;;;;;;1.67;79.03;100760.63;5010800;28;20088;-69
2022/01/15 09:22:15;;;;;;;25.30;14.32;;;;;;;1.79;78.67;100754.56;5009045;28;20536;-70
2022/01/15 09:24:44;;;;;;;33.05;18.23;;;;;;;1.86;77.86;100760.66;5010183;28;20503;-70
2022/01/15 09:30:12;;;;;;;20.85;13.50;;;;;;;2.06;78.21;100742.50;5008413;28;20068;-68
2022/01/15 09:32:49;;;;;;;22.75;13.30;;;;;;;3.33;76.69;100736.22;5009012;28;20085;-69
2022/01/15 09:35:18;;;;;;;18.58;13.30;;;;;;;4.52;70.10;100731.91;5008296;28;20034;-69
2022/01/15 09:37:45;;;;;;;16.83;11.90;;;;;;;5.43;66.43;100731.78;5010233;28;20049;-70
2022/01/15 09:40:11;;;;;;;13.40;10.23;;;;;;;6.56;63.18;100723.13;4993915;28;20621;-68
2022/01/15 09:42:41;;;;;;;13.13;9.13;;;;;;;7.53;59.82;100717.72;5007074;28;20026;-69
2022/01/15 09:45:08;;;;;;;13.90;10.02;;;;;;;8.24;56.32;100705.56;5009139;28;20038;-69
2022/01/15 09:47:35;;;;;;;19.45;14.18;;;;;;;8.49;55.47;100715.47;5009461;28;20038;-69
2022/01/15 09:50:05;;;;;;;15.60;12.02;;;;;;;8.99;54.50;100708.03;4991084;28;20122;-69
2022/01/15 09:52:32;;;;;;;18.73;13.02;;;;;;;9.61;53.42;100709.72;4989413;28;20041;-70
2022/01/15 09:54:58;;;;;;;21.90;14.75;;;;;;;9.52;52.02;100708.22;4990453;28;20463;-69
2022/01/15 09:57:23;;;;;;;22.23;16.95;;;;;;;9.59;52.05;100709.75;4976683;28;20041;-68
2022/01/15 09:59:49;;;;;;;20.88;16.00;;;;;;;9.51;51.73;100706.50;4983336;28;20560;-68
2022/01/15 10:02:16;;;;;;;23.98;16.85;;;;;;;9.35;52.22;100710.50;4987141;28;20764;-68
2022/01/15 10:04:41;;;;;;;20.33;15.50;;;;;;;9.55;52.56;100709.91;5004896;28;20056;-68
2022/01/15 10:07:22;;;;;;;22.23;16.92;;;;;;;9.83;50.90;100707.31;5001100;28;20059;-68
2022/01/15 10:09:49;;;;;;;35.95;17.15;;;;;;;9.97;51.11;100709.47;5003760;28;20033;-70
2022/01/15 10:12:23;;;;;;;22.42;16.92;;;;;;;10.29;50.59;100716.41;4987495;28;20038;-70
2022/01/15 10:14:48;;;;;;;21.42;14.23;;;;;;;10.29;50.43;100711.13;4984403;28;20042;-69
2022/01/15 10:17:25;;;;;;;19.38;14.57;;;;;;;10.04;50.36;100706.63;4990455;28;20444;-69
2022/01/15 10:19:52;;;;;;;18.60;13.65;;;;;;;9.81;51.06;100714.38;4987337;28;20154;-69
2022/01/15 10:22:25;;;;;;;17.55;13.90;;;;;;;9.88;50.59;100710.66;5003649;28;20034;-70
2022/01/15 10:24:55;;;;;;;18.98;14.02;;;;;;;10.20;49.63;100706.13;5004228;28;20045;-70
2022/01/15 10:27:28;;;;;;;17.65;12.90;;;;;;;10.34;49.64;100706.56;4998654;28;20133;-69
2022/01/15 10:29:55;;;;;;;18.85;12.60;;;;;;;9.65;51.29;100709.59;4998883;28;20121;-76
2022/01/15 10:32:23;;;;;;;17.98;14.52;;;;;;;9.04;52.26;100714.03;4985105;28;20078;-75
2022/01/15 10:34:48;;;;;;;15.63;12.10;;;;;;;8.65;54.39;100713.34;5000563;28;20503;-74
2022/01/15 10:37:22;;;;;;;19.45;13.75;;;;;;;8.32;55.21;100714.13;5013791;28;20048;-75
2022/01/15 10:39:56;;;;;;;15.88;11.57;;;;;;;7.96;56.63;100706.25;4986242;28;20096;-74
2022/01/15 10:42:23;;;;;;;13.38;10.57;;;;;;;7.86;57.23;100707.34;4982519;28;20042;-69
2022/01/15 10:44:52;;;;;;;18.70;15.30;;;;;;;7.58;57.42;100701.00;4984125;28;20575;-69
2022/01/15 10:47:19;;;;;;;16.83;12.88;;;;;;;7.28;58.62;100703.38;4980993;28;20069;-70
2022/01/15 10:49:45;;;;;;;18.65;15.32;;;;;;;6.97;60.01;100705.78;5018913;28;20037;-69
2022/01/15 10:52:17;;;;;;;19.25;14.25;;;;;;;6.58;60.85;100696.00;5003386;28;20054;-70
2022/01/15 10:55:07;;;;;;;17.08;12.65;;;;;;;6.52;61.45;100700.50;5003481;28;20033;-70
2022/01/15 10:57:41;;;;;;;17.40;11.77;;;;;;;6.20;62.40;100701.91;4997665;28;20035;-69
2022/01/15 11:00:07;;;;;;;16.73;12.48;;;;;;;5.94;63.62;100697.97;4986638;28;20034;-69
2022/01/15 11:02:32;;;;;;;16.80;12.68;;;;;;;5.70;64.69;100696.53;4983755;28;20045;-68
2022/01/15 11:04:58;;;;;;;16.17;11.80;;;;;;;5.46;66.15;100684.66;4993226;28;20494;-69
2022/01/15 11:07:24;;;;;;;17.75;11.63;;;;;;;5.59;66.16;100685.38;5003389;28;20042;-67
2022/01/15 11:09:56;;;;;;;16.90;10.52;;;;;;;5.55;66.15;100681.06;4985371;28;20410;-68
2022/01/15 11:12:28;;;;;;;17.88;11.73;;;;;;;5.47;66.96;100665.50;4996609;28;20042;-68
2022/01/15 11:14:54;;;;;;;16.27;11.32;;;;;;;5.52;66.57;100668.91;4984486;28;20121;-69
2022/01/15 11:17:19;;;;;;;18.08;11.75;;;;;;;5.49;66.83;100666.34;4985811;28;20142;-68
2022/01/15 11:19:45;;;;;;;15.73;11.77;;;;;;;5.51;67.00;100656.72;4987224;28;20052;-69
2022/01/15 11:22:16;;;;;;;19.20;13.07;;;;;;;5.44;67.44;100662.03;4984948;28;20086;-69
2022/01/15 11:24:42;;;;;;;15.73;11.55;;;;;;;5.40;67.16;100657.75;4987492;28;20104;-69
2022/01/15 11:27:07;;;;;;;19.52;11.15;;;;;;;5.43;67.53;100653.34;4990706;28;20037;-69
2022/01/15 11:29:33;;;;;;;14.75;11.02;;;;;;;5.34;67.97;100656.97;5005216;28;20038;-73
2022/01/15 11:32:00;;;;;;;16.98;11.18;;;;;;;5.43;67.99;100661.19;5003659;28;20054;-73
2022/01/15 11:34:27;;;;;;;17.75;12.98;;;;;;;5.36;67.90;100649.06;5003510;28;20045;-73
2022/01/15 11:36:53;;;;;;;15.68;11.27;;;;;;;5.46;67.99;100655.03;5005912;28;20057;-73